createdAt,value
2018-05-01T00:01:56.243Z,73.59
2018-05-01T00:04:23.618Z,73.74
2018-05-01T00:06:50.995Z,74.15
2018-05-01T00:09:18.424Z,74.27
2018-05-01T00:11:45.783Z,74.35
2018-05-01T00:14:13.154Z,74.36
2018-05-01T00:16:40.531Z,74.10
2018-05-01T00:19:07.911Z,74.84
2018-05-01T00:21:35.283Z,75.40
2018-05-01T00:24:02.675Z,75.48
2018-05-01T00:26:30.183Z,75.40
2018-05-01T00:28:57.552Z,75.54
2018-05-01T00:31:24.923Z,75.57
2018-05-01T00:33:52.303Z,75.42
2018-05-01T00:36:19.679Z,76.06
2018-05-01T00:38:47.063Z,75.67
2018-05-01T00:41:14.431Z,75.73
2018-05-01T00:43:41.799Z,76.13
2018-05-01T00:46:09.182Z,75.74
2018-05-01T00:48:36.563Z,76.09
2018-05-01T00:51:03.935Z,75.57
2018-05-01T00:53:31.302Z,75.73
2018-05-01T00:55:58.855Z,76.23
2018-05-01T00:58:26.222Z,76.18
2018-05-01T01:00:53.607Z,75.20
2018-05-01T01:03:21.019Z,75.33
2018-05-01T01:05:48.662Z,75.38
2018-05-01T01:08:16.135Z,75.61
2018-05-01T01:10:43.506Z,75.98
2018-05-01T01:13:10.880Z,75.17
2018-05-01T01:15:38.306Z,75.10
2018-05-01T01:18:05.682Z,75.24
2018-05-01T01:20:33.219Z,75.65
2018-05-01T01:23:00.598Z,74.68
2018-05-01T01:25:27.974Z,75.34
2018-05-01T01:27:55.344Z,75.17
2018-05-01T01:30:22.723Z,75.26
2018-05-01T01:32:52.929Z,75.62
2018-05-01T01:35:19.781Z,75.41
2018-05-01T01:37:46.614Z,75.27
2018-05-01T01:40:13.472Z,75.09
2018-05-01T01:42:40.303Z,75.45
2018-05-01T01:45:07.150Z,75.95
2018-05-01T01:47:33.998Z,75.85
2018-05-01T01:50:00.847Z,75.97
2018-05-01T01:52:27.720Z,76.48
2018-05-01T01:54:54.558Z,76.85
2018-05-01T01:57:21.387Z,76.09
2018-05-01T01:59:48.235Z,76.53
2018-05-01T02:02:15.083Z,77.01
2018-05-01T02:04:41.922Z,76.87
2018-05-01T02:07:08.763Z,77.19
2018-05-01T02:09:35.611Z,77.32
2018-05-01T02:12:02.469Z,77.92
2018-05-01T02:14:29.291Z,77.79
2018-05-01T02:16:56.131Z,78.07
2018-05-01T02:19:22.987Z,78.27
2018-05-01T02:21:49.823Z,78.89
2018-05-01T02:24:16.654Z,78.89
2018-05-01T02:26:43.487Z,79.10
2018-05-01T02:29:10.378Z,79.26
2018-05-01T02:31:37.227Z,79.35
2018-05-01T02:34:04.059Z,78.44
2018-05-01T02:36:30.899Z,79.08
2018-05-01T02:38:57.754Z,79.01
2018-05-01T02:41:24.586Z,78.83
2018-05-01T02:43:51.419Z,78.72
2018-05-01T02:46:18.263Z,78.68
2018-05-01T02:48:45.530Z,78.76
2018-05-01T02:51:12.370Z,79.05
2018-05-01T02:53:39.198Z,78.59
2018-05-01T02:56:06.035Z,79.47
2018-05-01T02:58:32.876Z,79.09
2018-05-01T03:00:59.731Z,79.83
2018-05-01T03:03:26.780Z,79.01
2018-05-01T03:05:53.609Z,79.52
2018-05-01T03:08:20.446Z,79.61
2018-05-01T03:10:47.447Z,79.88
2018-05-01T03:13:14.278Z,80.42
2018-05-01T03:15:41.111Z,80.63
2018-05-01T03:18:07.961Z,80.74
2018-05-01T03:20:34.802Z,80.81
2018-05-01T03:23:01.654Z,81.61
2018-05-01T03:25:28.556Z,81.94
2018-05-01T03:27:55.343Z,82.13
2018-05-01T03:30:22.179Z,81.94
2018-05-01T03:32:49.027Z,81.64
2018-05-01T03:35:15.866Z,82.24
2018-05-01T03:37:42.703Z,82.28
2018-05-01T03:40:09.552Z,81.62
2018-05-01T03:42:36.390Z,81.80
2018-05-01T03:45:03.261Z,81.00
2018-05-01T03:47:30.087Z,81.23
2018-05-01T03:49:56.931Z,81.41
2018-05-01T03:52:23.794Z,81.00
2018-05-01T03:54:50.642Z,80.56
2018-05-01T03:57:17.469Z,80.98
2018-05-01T03:59:44.318Z,80.67
2018-05-01T04:02:11.169Z,80.92
2018-05-01T04:04:38.002Z,80.71
2018-05-01T04:07:04.862Z,80.68
2018-05-01T04:09:31.688Z,80.35
2018-05-01T04:11:58.531Z,80.38
2018-05-01T04:14:25.456Z,80.62
2018-05-01T04:16:52.303Z,80.48
2018-05-01T04:19:19.151Z,80.27
2018-05-01T04:21:46.014Z,79.79
2018-05-01T04:24:12.854Z,79.74
2018-05-01T04:26:39.717Z,79.69
2018-05-01T04:29:06.583Z,78.94
2018-05-01T04:31:33.423Z,78.69
2018-05-01T04:34:00.272Z,79.28
2018-05-01T04:36:27.133Z,78.65
2018-05-01T04:38:54.028Z,79.05
2018-05-01T04:41:20.871Z,79.26
2018-05-01T04:43:47.728Z,78.74
2018-05-01T04:46:14.562Z,78.96
2018-05-01T04:48:41.687Z,78.73
2018-05-01T04:51:08.527Z,78.45
2018-05-01T04:53:35.419Z,78.61
2018-05-01T04:56:02.251Z,79.01
2018-05-01T04:58:29.207Z,78.81
2018-05-01T05:00:55.950Z,79.11
2018-05-01T05:03:22.812Z,78.96
2018-05-01T05:05:49.652Z,79.12
2018-05-01T05:08:16.503Z,78.72
2018-05-01T05:10:43.347Z,78.54
2018-05-01T05:13:10.206Z,79.11
2018-05-01T05:15:37.122Z,78.60
2018-05-01T05:18:03.899Z,78.50
2018-05-01T05:20:30.746Z,77.78
2018-05-01T05:22:57.600Z,78.64
2018-05-01T05:25:24.692Z,77.75
2018-05-01T05:27:51.539Z,78.03
2018-05-01T05:30:18.379Z,77.91
2018-05-01T05:32:45.418Z,77.62
2018-05-01T05:35:12.266Z,77.16
2018-05-01T05:37:39.130Z,77.65
2018-05-01T05:40:05.976Z,76.81
2018-05-01T05:42:32.859Z,76.92
2018-05-01T05:44:59.699Z,76.81
2018-05-01T05:47:26.539Z,76.29
2018-05-01T05:49:53.390Z,75.92
2018-05-01T05:52:20.289Z,75.19
2018-05-01T05:54:47.125Z,75.05
2018-05-01T05:57:13.963Z,74.71
2018-05-01T05:59:40.815Z,74.71
2018-05-01T06:02:07.652Z,75.08
2018-05-01T06:04:34.723Z,73.76
2018-05-01T06:07:01.559Z,73.84
2018-05-01T06:09:28.405Z,73.24
2018-05-01T06:11:55.234Z,73.72
2018-05-01T06:14:22.103Z,73.24
2018-05-01T06:16:48.963Z,72.80
2018-05-01T06:19:16.305Z,72.52
2018-05-01T06:21:43.994Z,72.40
2018-05-01T06:24:10.847Z,72.99
2018-05-01T06:26:38.047Z,72.13
2018-05-01T06:29:04.943Z,71.37
2018-05-01T06:31:31.775Z,71.45
2018-05-01T06:33:58.678Z,70.51
2018-05-01T06:36:25.545Z,71.77
2018-05-01T06:38:52.431Z,71.06
2018-05-01T06:41:19.260Z,71.64
2018-05-01T06:43:46.137Z,71.81
2018-05-01T06:46:13.006Z,70.91
2018-05-01T06:48:39.936Z,70.84
2018-05-01T06:51:06.866Z,70.23
2018-05-01T06:53:33.691Z,70.44
2018-05-01T06:56:00.571Z,70.79
2018-05-01T06:58:27.392Z,70.16
2018-05-01T07:00:54.255Z,69.56
2018-05-01T07:03:21.099Z,69.49
2018-05-01T07:05:47.950Z,69.46
2018-05-01T07:08:14.792Z,68.57
2018-05-01T07:10:41.648Z,67.92
2018-05-01T07:13:08.487Z,68.64
2018-05-01T07:15:35.331Z,67.81
2018-05-01T07:18:02.178Z,67.95
2018-05-01T07:20:29.043Z,67.53
2018-05-01T07:22:55.904Z,66.90
2018-05-01T07:25:22.751Z,66.86
2018-05-01T07:27:49.599Z,67.25
2018-05-01T07:30:16.447Z,64.87
2018-05-01T07:32:43.305Z,63.44
2018-05-01T07:35:10.151Z,65.37
2018-05-01T07:37:37.071Z,65.14
2018-05-01T07:40:03.947Z,65.16
2018-05-01T07:42:30.787Z,65.06
2018-05-01T07:44:57.642Z,63.62
2018-05-01T07:47:24.502Z,63.45
2018-05-01T07:49:51.377Z,64.69
2018-05-01T07:52:18.202Z,63.16
2018-05-01T07:54:45.059Z,63.90
2018-05-01T07:57:11.898Z,61.22
2018-05-01T07:59:38.750Z,61.50
2018-05-01T08:02:05.583Z,61.07
2018-05-01T08:04:32.433Z,62.22
2018-05-01T08:06:59.319Z,62.92
2018-05-01T08:09:26.107Z,63.61
2018-05-01T08:11:52.964Z,62.51
2018-05-01T08:14:19.810Z,60.40
2018-05-01T08:16:46.656Z,62.45
2018-05-01T08:19:13.522Z,61.66
2018-05-01T08:21:40.386Z,61.81
2018-05-01T08:24:07.222Z,59.82
2018-05-01T08:26:34.082Z,59.75
2018-05-01T08:29:00.919Z,60.82
2018-05-01T08:31:27.798Z,59.82
2018-05-01T08:33:54.655Z,59.10
2018-05-01T08:36:21.496Z,60.04
2018-05-01T08:38:48.373Z,58.95
2018-05-01T08:41:15.200Z,58.38
2018-05-01T08:43:42.051Z,59.73
2018-05-01T08:46:09.023Z,58.68
2018-05-01T08:48:35.901Z,57.09
2018-05-01T08:51:02.746Z,58.52
2018-05-01T08:53:29.594Z,58.38
2018-05-01T08:55:56.454Z,58.83
2018-05-01T08:58:23.299Z,59.33
2018-05-01T09:00:50.150Z,57.24
2018-05-01T09:03:17.012Z,58.03
2018-05-01T09:05:43.855Z,57.23
2018-05-01T09:08:10.695Z,56.33
2018-05-01T09:10:37.551Z,56.49
2018-05-01T09:13:04.423Z,55.15
2018-05-01T09:15:31.345Z,55.97
2018-05-01T09:17:58.141Z,55.42
2018-05-01T09:20:24.954Z,54.88
2018-05-01T09:22:51.799Z,54.49
2018-05-01T09:25:18.640Z,54.51
2018-05-01T09:27:45.542Z,54.21
2018-05-01T09:30:12.387Z,53.18
2018-05-01T09:32:39.242Z,52.97
2018-05-01T09:35:06.087Z,54.09
2018-05-01T09:37:32.926Z,54.07
2018-05-01T09:39:59.813Z,53.89
2018-05-01T09:42:26.648Z,53.21
2018-05-01T09:44:53.522Z,52.56
2018-05-01T09:47:20.402Z,52.12
2018-05-01T09:49:47.235Z,51.49
2018-05-01T09:52:14.151Z,50.90
2018-05-01T09:54:41.468Z,52.50
2018-05-01T09:57:08.886Z,51.49
2018-05-01T09:59:36.263Z,51.77
2018-05-01T10:02:03.703Z,49.89
2018-05-01T10:04:31.090Z,49.49
2018-05-01T10:06:58.485Z,49.77
2018-05-01T10:09:25.907Z,49.95
2018-05-01T10:11:53.294Z,49.62
2018-05-01T10:14:20.696Z,49.43
2018-05-01T10:16:48.096Z,50.36
2018-05-01T10:19:15.483Z,50.99
2018-05-01T10:21:42.875Z,51.25
2018-05-01T10:24:10.247Z,51.01
2018-05-01T10:26:37.642Z,52.07
2018-05-01T10:29:05.037Z,52.53
2018-05-01T10:31:32.419Z,50.94
2018-05-01T10:33:59.805Z,50.45
2018-05-01T10:36:27.218Z,49.17
2018-05-01T10:38:54.708Z,48.34
2018-05-01T10:41:22.007Z,50.15
2018-05-01T10:43:49.390Z,49.61
2018-05-01T10:46:16.785Z,50.25
2018-05-01T10:48:44.169Z,49.71
2018-05-01T10:51:11.571Z,50.41
2018-05-01T10:53:39.003Z,50.94
2018-05-01T10:56:06.403Z,51.35
2018-05-01T10:58:33.815Z,51.08
2018-05-01T11:01:01.190Z,49.55
2018-05-01T11:03:28.595Z,50.51
2018-05-01T11:05:55.993Z,47.17
2018-05-01T11:08:23.408Z,46.34
2018-05-01T11:10:50.805Z,48.09
2018-05-01T11:13:18.263Z,46.82
2018-05-01T11:15:45.746Z,46.51
2018-05-01T11:18:13.159Z,46.33
2018-05-01T11:20:40.578Z,43.75
2018-05-01T11:23:07.947Z,45.27
2018-05-01T11:25:35.346Z,43.78
2018-05-01T11:28:02.725Z,45.38
2018-05-01T11:30:30.133Z,47.08
2018-05-01T11:32:57.502Z,47.21
2018-05-01T11:35:24.890Z,43.69
2018-05-01T11:37:52.280Z,43.18
2018-05-01T11:40:19.673Z,45.03
2018-05-01T11:42:47.069Z,44.11
2018-05-01T11:45:14.601Z,44.40
2018-05-01T11:47:42.055Z,46.41
2018-05-01T11:50:09.442Z,46.28
2018-05-01T11:52:36.826Z,47.34
2018-05-01T11:55:04.196Z,49.04
2018-05-01T11:57:31.588Z,48.64
2018-05-01T11:59:58.971Z,47.17
2018-05-01T12:02:26.372Z,44.98
2018-05-01T12:04:53.765Z,45.63
2018-05-01T12:07:21.155Z,45.20
2018-05-01T12:09:48.606Z,45.32
2018-05-01T12:12:15.946Z,46.41
2018-05-01T12:14:43.342Z,48.50
2018-05-01T12:17:10.727Z,46.87
2018-05-01T12:19:38.135Z,44.76
2018-05-01T12:22:05.515Z,44.60
2018-05-01T12:24:32.912Z,43.39
2018-05-01T12:27:00.315Z,42.20
2018-05-01T12:29:27.745Z,44.88
2018-05-01T12:31:55.162Z,46.10
2018-05-01T12:34:22.556Z,44.78
2018-05-01T12:36:50.161Z,45.46
2018-05-01T12:39:17.325Z,46.76
2018-05-01T12:41:44.714Z,46.17
2018-05-01T12:44:12.106Z,45.80
2018-05-01T12:46:39.634Z,45.50
2018-05-01T12:49:07.020Z,45.73
2018-05-01T12:51:34.449Z,47.15
2018-05-01T12:54:01.827Z,45.95
2018-05-01T12:56:29.226Z,46.77
2018-05-01T12:58:56.610Z,47.87
2018-05-01T13:01:23.999Z,44.51
2018-05-01T13:03:51.399Z,43.90
2018-05-01T13:06:18.798Z,45.81
2018-05-01T13:08:46.183Z,45.97
2018-05-01T13:11:13.608Z,46.24
2018-05-01T13:13:40.994Z,48.21
2018-05-01T13:16:08.446Z,48.06
2018-05-01T13:18:35.863Z,47.63
2018-05-01T13:21:03.255Z,47.85
2018-05-01T13:23:30.645Z,48.47
2018-05-01T13:25:58.027Z,49.88
2018-05-01T13:28:25.439Z,50.66
2018-05-01T13:30:52.841Z,49.86
2018-05-01T13:33:20.247Z,48.88
2018-05-01T13:35:47.642Z,47.26
2018-05-01T13:38:15.055Z,48.69
2018-05-01T13:40:42.434Z,47.23
2018-05-01T13:43:09.818Z,48.44
2018-05-01T13:45:37.207Z,48.08
2018-05-01T13:48:04.602Z,46.96
2018-05-01T13:50:32.046Z,47.49
2018-05-01T13:52:59.411Z,47.89
2018-05-01T13:55:26.870Z,49.78
2018-05-01T13:57:54.335Z,49.13
2018-05-01T14:00:21.775Z,47.87
2018-05-01T14:02:49.226Z,47.63
2018-05-01T14:05:16.693Z,47.33
2018-05-01T14:07:44.150Z,47.99
2018-05-01T14:10:11.615Z,47.99
2018-05-01T14:12:39.069Z,48.57
2018-05-01T14:15:06.447Z,49.50
2018-05-01T14:17:33.842Z,48.80
2018-05-01T14:20:01.233Z,50.40
2018-05-01T14:22:28.705Z,49.27
2018-05-01T14:24:56.090Z,49.91
2018-05-01T14:27:23.470Z,49.85
2018-05-01T14:29:50.864Z,48.87
2018-05-01T14:32:18.247Z,50.77
2018-05-01T14:34:45.635Z,48.96
2018-05-01T14:37:13.023Z,47.53
2018-05-01T14:39:40.403Z,46.83
2018-05-01T14:42:07.853Z,46.98
2018-05-01T14:44:35.167Z,46.66
2018-05-01T14:47:02.555Z,47.92
2018-05-01T14:49:29.938Z,47.82
2018-05-01T14:51:57.322Z,47.84
2018-05-01T14:54:24.712Z,47.50
2018-05-01T14:56:52.102Z,47.53
2018-05-01T14:59:19.518Z,46.49
2018-05-01T15:01:46.976Z,48.87
2018-05-01T15:04:14.286Z,46.99
2018-05-01T15:06:41.667Z,46.24
2018-05-01T15:09:09.054Z,47.67
2018-05-01T15:11:36.588Z,47.45
2018-05-01T15:14:04.107Z,46.97
2018-05-01T15:16:31.611Z,47.79
2018-05-01T15:18:59.007Z,48.46
2018-05-01T15:21:26.570Z,46.98
2018-05-01T15:23:54.108Z,47.15
2018-05-01T15:26:21.490Z,46.96
2018-05-01T15:28:48.916Z,47.00
2018-05-01T15:31:16.447Z,46.28
2018-05-01T15:33:43.763Z,46.46
2018-05-01T15:36:11.173Z,44.60
2018-05-01T15:38:38.604Z,45.20
2018-05-01T15:41:05.982Z,45.78
2018-05-01T15:43:33.375Z,45.72
2018-05-01T15:46:00.755Z,46.38
2018-05-01T15:48:28.154Z,45.38
2018-05-01T15:50:55.535Z,46.27
2018-05-01T15:53:22.915Z,47.16
2018-05-01T15:55:50.327Z,44.87
2018-05-01T15:58:17.713Z,45.70
2018-05-01T16:00:45.110Z,45.38
2018-05-01T16:03:12.486Z,46.02
2018-05-01T16:05:39.875Z,46.57
2018-05-01T16:08:07.251Z,46.84
2018-05-01T16:10:34.662Z,47.47
2018-05-01T16:13:02.047Z,46.97
2018-05-01T16:15:29.431Z,44.62
2018-05-01T16:17:56.819Z,46.21
2018-05-01T16:20:24.207Z,42.99
2018-05-01T16:22:51.595Z,44.47
2018-05-01T16:25:18.977Z,43.44
2018-05-01T16:27:46.387Z,47.39
2018-05-01T16:30:13.767Z,46.55
2018-05-01T16:32:41.151Z,46.00
2018-05-01T16:35:08.626Z,43.82
2018-05-01T16:37:36.010Z,43.36
2018-05-01T16:40:03.395Z,43.81
2018-05-01T16:42:30.794Z,44.66
2018-05-01T16:44:58.174Z,46.02
2018-05-01T16:47:25.594Z,45.65
2018-05-01T16:49:52.969Z,44.67
2018-05-01T16:52:20.351Z,46.77
2018-05-01T16:54:47.746Z,46.68
2018-05-01T16:57:15.126Z,46.06
2018-05-01T16:59:42.515Z,46.61
2018-05-01T17:02:09.928Z,46.33
2018-05-01T17:04:37.327Z,47.31
2018-05-01T17:07:04.708Z,46.13
2018-05-01T17:09:32.090Z,47.84
2018-05-01T17:11:59.480Z,47.09
2018-05-01T17:14:26.886Z,47.42
2018-05-01T17:16:54.266Z,46.26
2018-05-01T17:19:21.655Z,47.58
2018-05-01T17:21:49.037Z,46.99
2018-05-01T17:24:16.419Z,46.76
2018-05-01T17:26:43.807Z,48.04
2018-05-01T17:29:11.279Z,45.53
2018-05-01T17:31:38.635Z,46.18
2018-05-01T17:34:06.015Z,45.88
2018-05-01T17:36:33.416Z,46.29
2018-05-01T17:39:00.800Z,46.84
2018-05-01T17:41:28.207Z,46.96
2018-05-01T17:43:55.583Z,49.34
2018-05-01T17:46:22.969Z,47.67
2018-05-01T17:48:50.452Z,49.06
2018-05-01T17:51:17.756Z,47.85
2018-05-01T17:53:45.167Z,47.59
2018-05-01T17:56:12.589Z,47.50
2018-05-01T17:58:39.987Z,47.92
2018-05-01T18:01:07.386Z,47.76
2018-05-01T18:03:34.771Z,47.11
2018-05-01T18:06:02.151Z,47.70
2018-05-01T18:08:29.535Z,47.62
2018-05-01T18:10:56.978Z,48.52
2018-05-01T18:13:24.360Z,48.47
2018-05-01T18:15:52.127Z,49.53
2018-05-01T18:18:19.530Z,49.49
2018-05-01T18:20:46.920Z,48.81
2018-05-01T18:23:14.298Z,49.01
2018-05-01T18:25:41.687Z,49.72
2018-05-01T18:28:09.082Z,50.38
2018-05-01T18:30:36.509Z,52.07
2018-05-01T18:33:03.850Z,51.31
2018-05-01T18:35:31.238Z,51.78
2018-05-01T18:37:58.626Z,53.26
2018-05-01T18:40:26.074Z,54.60
2018-05-01T18:42:53.463Z,54.51
2018-05-01T18:45:20.922Z,54.93
2018-05-01T18:47:48.392Z,56.14
2018-05-01T18:50:15.792Z,56.70
2018-05-01T18:52:43.204Z,56.91
2018-05-01T18:55:10.580Z,57.47
2018-05-01T18:57:38.011Z,57.66
2018-05-01T19:00:05.398Z,57.96
2018-05-01T19:02:32.791Z,58.23
2018-05-01T19:05:00.182Z,58.67
2018-05-01T19:07:27.567Z,59.40
2018-05-01T19:09:54.963Z,60.31
2018-05-01T19:12:22.358Z,61.12
2018-05-01T19:14:49.767Z,61.31
2018-05-01T19:17:17.149Z,61.87
2018-05-01T19:19:44.599Z,62.43
2018-05-01T19:22:11.982Z,63.60
2018-05-01T19:24:39.379Z,64.69
2018-05-01T19:27:06.858Z,65.32
2018-05-01T19:29:34.261Z,65.80
2018-05-01T19:32:01.657Z,66.36
2018-05-01T19:34:29.031Z,66.96
2018-05-01T19:36:56.411Z,67.08
2018-05-01T19:39:23.799Z,67.26
2018-05-01T19:41:51.207Z,67.86
2018-05-01T19:44:18.596Z,68.43
2018-05-01T19:46:45.979Z,68.96
2018-05-01T19:49:13.390Z,68.87
2018-05-01T19:51:40.836Z,69.31
2018-05-01T19:54:08.227Z,69.36
2018-05-01T19:56:35.694Z,69.19
2018-05-01T19:59:03.066Z,69.57
2018-05-01T20:01:30.463Z,69.99
2018-05-01T20:03:57.847Z,70.28
2018-05-01T20:06:25.575Z,70.47
2018-05-01T20:08:52.974Z,70.70
2018-05-01T20:11:20.354Z,70.81
2018-05-01T20:13:47.816Z,71.07
2018-05-01T20:16:15.187Z,71.23
2018-05-01T20:18:42.578Z,71.25
2018-05-01T20:21:09.958Z,70.85
2018-05-01T20:23:37.351Z,70.90
2018-05-01T20:26:04.827Z,71.04
2018-05-01T20:28:32.207Z,71.56
2018-05-01T20:30:59.591Z,71.53
2018-05-01T20:33:26.971Z,71.86
2018-05-01T20:35:54.351Z,71.71
2018-05-01T20:38:21.739Z,71.25
2018-05-01T20:40:49.143Z,71.72
2018-05-01T20:43:16.520Z,70.84
2018-05-01T20:45:43.900Z,70.46
2018-05-01T20:48:11.283Z,71.20
2018-05-01T20:50:38.679Z,71.33
2018-05-01T20:53:06.068Z,71.34
2018-05-01T20:55:33.456Z,71.42
2018-05-01T20:58:01.162Z,71.35
2018-05-01T21:00:28.543Z,71.18
2018-05-01T21:02:55.923Z,71.09
2018-05-01T21:05:23.315Z,70.65
2018-05-01T21:07:50.699Z,71.02
2018-05-01T21:10:18.094Z,70.85
2018-05-01T21:12:45.475Z,70.53
2018-05-01T21:15:12.878Z,70.79
2018-05-01T21:17:40.251Z,70.73
2018-05-01T21:20:07.635Z,70.96
2018-05-01T21:22:35.023Z,70.08
2018-05-01T21:25:02.406Z,69.96
2018-05-01T21:27:29.787Z,70.29
2018-05-01T21:29:57.162Z,70.41
2018-05-01T21:32:24.554Z,70.94
2018-05-01T21:34:51.999Z,70.63
2018-05-01T21:37:19.377Z,70.73
2018-05-01T21:39:46.759Z,71.03
2018-05-01T21:42:14.193Z,70.74
2018-05-01T21:44:41.558Z,70.55
2018-05-01T21:47:08.943Z,70.58
2018-05-01T21:49:36.338Z,71.10
2018-05-01T21:52:03.715Z,71.18
2018-05-01T21:54:31.103Z,71.50
2018-05-01T21:56:58.505Z,71.33
2018-05-01T21:59:25.955Z,71.52
2018-05-01T22:01:53.368Z,71.90
2018-05-01T22:04:20.747Z,71.47
2018-05-01T22:06:48.154Z,71.42
2018-05-01T22:09:15.558Z,71.23
2018-05-01T22:11:42.945Z,71.87
2018-05-01T22:14:10.331Z,71.75
2018-05-01T22:16:37.711Z,71.93
2018-05-01T22:19:05.406Z,72.30
2018-05-01T22:21:32.792Z,72.00
2018-05-01T22:24:00.178Z,71.99
2018-05-01T22:26:27.558Z,71.72
2018-05-01T22:28:55.043Z,72.22
2018-05-01T22:31:22.327Z,72.31
2018-05-01T22:33:49.706Z,72.18
2018-05-01T22:36:17.107Z,72.46
2018-05-01T22:38:44.490Z,72.80
2018-05-01T22:41:11.875Z,72.31
2018-05-01T22:43:39.266Z,72.79
2018-05-01T22:46:06.647Z,73.04
2018-05-01T22:48:34.036Z,73.30
2018-05-01T22:51:01.419Z,73.19
2018-05-01T22:53:28.813Z,73.47
2018-05-01T22:55:56.215Z,73.34
2018-05-01T22:58:23.595Z,72.88
2018-05-01T23:00:51.000Z,73.04
2018-05-01T23:03:18.382Z,73.47
2018-05-01T23:05:45.763Z,73.56
2018-05-01T23:08:13.150Z,73.87
2018-05-01T23:10:40.543Z,74.06
2018-05-01T23:13:07.926Z,73.97
2018-05-01T23:15:35.310Z,74.23
2018-05-01T23:18:02.702Z,74.31
2018-05-01T23:20:30.115Z,74.11
2018-05-01T23:22:57.502Z,74.28
2018-05-01T23:25:24.889Z,74.19
2018-05-01T23:27:52.295Z,74.27
2018-05-01T23:30:19.679Z,74.39
2018-05-01T23:32:47.054Z,74.41
2018-05-01T23:35:14.454Z,74.47
2018-05-01T23:37:41.827Z,74.36
2018-05-01T23:40:09.211Z,74.57
2018-05-01T23:42:36.603Z,74.56
2018-05-01T23:45:04.067Z,74.53
2018-05-01T23:47:31.455Z,74.89
2018-05-01T23:49:58.834Z,75.11
2018-05-01T23:52:26.222Z,75.00
2018-05-01T23:54:53.620Z,74.78
2018-05-01T23:57:20.999Z,75.35
2018-05-01T23:59:48.390Z,75.95
